Time;durP1;ratioP1;P1;durP2;ratioP2;P2;SDS_P1;SDS_P2;PMS_P1;PMS_P2;Temp;Humidity;BMP_temperature;BMP_pressure;BME280_temperature;BME280_humidity;BME280_pressure;Samples;Min_cycle;Max_cycle;Signal;HPM_P1;HPM_P2
2021/11/15 00:02:22;;;;;;;4.80;4.40;;;;;;;;;;5092347;28;20396;-70
2021/11/15 00:04:50;;;;;;;5.10;4.60;;;;;;;;;;5075179;28;20390;-70
2021/11/15 00:07:17;;;;;;;5.15;4.65;;;;;;;;;;5074500;28;20409;-69
2021/11/15 00:09:44;;;;;;;5.60;4.88;;;;;;;;;;5069819;28;20400;-70
2021/11/15 00:12:12;;;;;;;4.73;4.30;;;;;;;;;;5079552;28;20987;-69
2021/11/15 00:14:39;;;;;;;5.03;4.53;;;;;;;;;;5091100;28;20473;-70
2021/11/15 00:17:08;;;;;;;4.97;4.47;;;;;;;;;;5095853;28;20385;-69
2021/11/15 00:19:35;;;;;;;5.47;4.75;;;;;;;;;;5059548;28;20420;-70
2021/11/15 00:22:03;;;;;;;5.25;4.50;;;;;;;;;;5078439;28;20396;-70
2021/11/15 00:24:31;;;;;;;4.82;4.32;;;;;;;;;;5074465;28;20406;-72
2021/11/15 00:26:58;;;;;;;4.70;4.30;;;;;;;;;;5088359;28;20691;-72
2021/11/15 00:29:25;;;;;;;4.88;4.40;;;;;;;;;;5084703;28;20392;-72
2021/11/15 00:31:52;;;;;;;5.27;4.70;;;;;;;;;;5083296;28;20396;-71
2021/11/15 00:34:20;;;;;;;5.57;4.97;;;;;;;;;;5082185;28;20380;-72
2021/11/15 00:36:47;;;;;;;4.78;4.38;;;;;;;;;;5078834;28;20368;-71
2021/11/15 00:39:14;;;;;;;5.20;4.68;;;;;;;;;;5077240;28;20398;-72
2021/11/15 00:41:41;;;;;;;5.00;4.60;;;;;;;;;;5076635;28;20386;-71
2021/11/15 00:44:09;;;;;;;5.28;4.78;;;;;;;;;;5087770;28;20384;-71
2021/11/15 00:46:36;;;;;;;5.10;4.70;;;;;;;;;;5085779;28;20393;-72
2021/11/15 00:49:03;;;;;;;5.00;4.50;;;;;;;;;;5091820;28;20388;-71
2021/11/15 00:51:31;;;;;;;5.00;4.60;;;;;;;;;;5093535;28;20389;-71
2021/11/15 00:53:59;;;;;;;6.15;4.70;;;;;;;;;;5081526;28;21040;-71
2021/11/15 00:56:26;;;;;;;5.15;4.65;;;;;;;;;;5081188;28;20399;-71
2021/11/15 00:58:53;;;;;;;4.82;4.43;;;;;;;;;;5089472;28;20393;-71
2021/11/15 01:01:21;;;;;;;4.90;4.50;;;;;;;;;;5089223;28;20450;-71
2021/11/15 01:03:50;;;;;;;5.72;4.90;;;;;;;;;;5078637;28;20426;-72
2021/11/15 01:06:19;;;;;;;4.93;4.53;;;;;;;;;;5084225;28;20943;-72
2021/11/15 01:08:50;;;;;;;5.05;4.55;;;;;;;;;;5068922;28;20727;-70
2021/11/15 01:11:23;;;;;;;5.07;4.68;;;;;;;;;;5086441;28;20392;-71
2021/11/15 01:13:53;;;;;;;5.30;4.90;;;;;;;;;;5083568;28;20389;-71
2021/11/15 01:16:23;;;;;;;5.35;4.85;;;;;;;;;;5091267;28;20417;-71
2021/11/15 01:18:52;;;;;;;5.07;4.60;;;;;;;;;;5065789;28;20905;-70
2021/11/15 01:21:27;;;;;;;5.15;4.65;;;;;;;;;;5087116;28;20394;-70
2021/11/15 01:23:58;;;;;;;4.95;4.55;;;;;;;;;;5069801;28;20390;-71
2021/11/15 01:26:27;;;;;;;5.40;4.93;;;;;;;;;;5071032;28;20849;-71
2021/11/15 01:28:55;;;;;;;5.30;4.80;;;;;;;;;;5087269;28;20404;-72
2021/11/15 01:31:24;;;;;;;5.05;4.55;;;;;;;;;;5085738;28;20422;-71
2021/11/15 01:33:52;;;;;;;4.78;4.38;;;;;;;;;;5062077;28;20404;-71
2021/11/15 01:36:22;;;;;;;4.68;4.28;;;;;;;;;;5078847;28;20457;-71
2021/11/15 01:38:54;;;;;;;4.97;4.57;;;;;;;;;;5068139;28;20784;-71
2021/11/15 01:41:24;;;;;;;4.40;4.00;;;;;;;;;;5090296;28;20389;-72
2021/11/15 01:43:52;;;;;;;5.10;4.70;;;;;;;;;;5086280;28;20873;-72
2021/11/15 01:46:21;;;;;;;5.10;4.60;;;;;;;;;;5082353;28;20461;-72
2021/11/15 01:48:55;;;;;;;4.97;4.55;;;;;;;;;;5074680;28;20396;-71
2021/11/15 01:51:27;;;;;;;5.18;4.75;;;;;;;;;;5067584;28;20446;-72
2021/11/15 01:53:55;;;;;;;5.05;4.65;;;;;;;;;;5078405;28;20708;-72
2021/11/15 01:56:24;;;;;;;4.97;4.57;;;;;;;;;;5076924;28;20893;-72
2021/11/15 01:58:54;;;;;;;4.68;4.28;;;;;;;;;;5072878;28;20399;-72
2021/11/15 02:01:25;;;;;;;4.72;4.32;;;;;;;;;;5082093;28;20400;-71
2021/11/15 02:03:56;;;;;;;4.63;4.22;;;;;;;;;;5091636;28;20406;-71
2021/11/15 02:06:27;;;;;;;4.63;4.22;;;;;;;;;;5069676;28;20433;-71
2021/11/15 02:08:58;;;;;;;4.60;4.20;;;;;;;;;;5082297;28;20404;-71
2021/11/15 02:11:29;;;;;;;4.57;4.23;;;;;;;;;;5075570;28;20390;-71
2021/11/15 02:13:57;;;;;;;4.50;4.10;;;;;;;;;;5080330;28;20404;-71
2021/11/15 02:16:27;;;;;;;4.75;4.35;;;;;;;;;;5079285;28;20398;-72
2021/11/15 02:18:58;;;;;;;4.45;4.05;;;;;;;;;;5059722;28;20388;-72
2021/11/15 02:21:29;;;;;;;4.50;4.10;;;;;;;;;;5074928;28;20404;-71
2021/11/15 02:23:57;;;;;;;4.45;4.15;;;;;;;;;;5080112;28;20394;-72
2021/11/15 02:26:29;;;;;;;4.32;3.97;;;;;;;;;;5084649;28;20393;-72
2021/11/15 02:28:59;;;;;;;4.10;3.80;;;;;;;;;;5089866;28;20399;-72
2021/11/15 02:31:31;;;;;;;4.10;3.80;;;;;;;;;;5084170;28;20403;-72
2021/11/15 02:34:01;;;;;;;4.50;4.10;;;;;;;;;;5068850;28;20903;-72
2021/11/15 02:36:29;;;;;;;4.45;4.10;;;;;;;;;;5080378;28;20393;-69
2021/11/15 02:39:02;;;;;;;4.10;3.78;;;;;;;;;;5088073;28;20394;-69
2021/11/15 02:41:32;;;;;;;4.25;3.90;;;;;;;;;;5088136;28;20396;-68
2021/11/15 02:44:08;;;;;;;4.47;4.15;;;;;;;;;;5084879;28;20444;-68
2021/11/15 02:46:43;;;;;;;4.45;4.10;;;;;;;;;;5089087;28;20390;-69
2021/11/15 02:49:16;;;;;;;4.50;4.10;;;;;;;;;;5069138;28;20466;-69
2021/11/15 02:51:46;;;;;;;4.13;3.83;;;;;;;;;;5072406;28;21164;-69
2021/11/15 02:54:16;;;;;;;4.40;4.00;;;;;;;;;;5066716;28;20393;-69
2021/11/15 02:56:46;;;;;;;4.10;3.80;;;;;;;;;;5081397;28;20397;-68
2021/11/15 02:59:19;;;;;;;4.00;3.70;;;;;;;;;;5084425;28;20450;-68
2021/11/15 03:01:49;;;;;;;4.38;3.97;;;;;;;;;;5079841;28;20462;-68
2021/11/15 03:04:24;;;;;;;4.17;3.80;;;;;;;;;;5100118;27;20412;-69
2021/11/15 03:06:56;;;;;;;4.05;3.72;;;;;;;;;;5082631;28;20904;-68
2021/11/15 03:09:26;;;;;;;4.10;3.80;;;;;;;;;;5081608;28;20407;-68
2021/11/15 03:11:55;;;;;;;3.80;3.50;;;;;;;;;;5087080;28;20389;-68
2021/11/15 03:14:23;;;;;;;4.05;3.75;;;;;;;;;;5080579;28;20920;-69
2021/11/15 03:16:54;;;;;;;4.47;3.97;;;;;;;;;;5083246;28;20403;-69
2021/11/15 03:19:26;;;;;;;3.93;3.63;;;;;;;;;;5072942;28;20396;-69
2021/11/15 03:21:58;;;;;;;3.83;3.50;;;;;;;;;;5082098;28;20406;-69
2021/11/15 03:24:31;;;;;;;3.90;3.60;;;;;;;;;;5069498;28;20841;-69
2021/11/15 03:27:00;;;;;;;3.90;3.60;;;;;;;;;;5085713;28;20388;-69
2021/11/15 03:29:32;;;;;;;4.07;3.78;;;;;;;;;;5084036;28;20797;-68
2021/11/15 03:32:02;;;;;;;3.75;3.42;;;;;;;;;;5066576;28;20380;-68
2021/11/15 03:34:32;;;;;;;4.13;3.83;;;;;;;;;;5077203;28;20388;-68
2021/11/15 03:37:06;;;;;;;4.13;3.83;;;;;;;;;;5050788;28;20384;-68
2021/11/15 03:39:38;;;;;;;3.85;3.55;;;;;;;;;;5080702;28;20495;-69
2021/11/15 03:42:09;;;;;;;4.10;3.80;;;;;;;;;;5086025;28;20865;-68
2021/11/15 03:44:40;;;;;;;3.97;3.67;;;;;;;;;;5062481;28;20404;-68
2021/11/15 03:47:09;;;;;;;4.38;3.97;;;;;;;;;;5067128;28;20746;-68
2021/11/15 03:49:42;;;;;;;4.28;3.88;;;;;;;;;;5072224;28;20396;-68
2021/11/15 03:52:13;;;;;;;3.75;3.45;;;;;;;;;;5066046;28;21047;-69
2021/11/15 03:54:42;;;;;;;4.30;4.00;;;;;;;;;;5077106;28;20412;-68
2021/11/15 03:57:12;;;;;;;4.07;3.78;;;;;;;;;;5080443;28;20439;-69
2021/11/15 03:59:44;;;;;;;4.10;3.70;;;;;;;;;;5085300;28;20400;-68
2021/11/15 04:02:19;;;;;;;4.05;3.75;;;;;;;;;;5082785;28;20869;-69
2021/11/15 04:04:53;;;;;;;4.38;4.07;;;;;;;;;;5082419;28;20388;-68
2021/11/15 04:07:41;;;;;;;3.97;3.67;;;;;;;;;;5085527;28;20397;-68
2021/11/15 04:10:21;;;;;;;4.10;3.80;;;;;;;;;;5088678;28;20817;-69
2021/11/15 04:12:49;;;;;;;4.10;3.80;;;;;;;;;;5080802;28;20388;-68
2021/11/15 04:15:19;;;;;;;4.25;3.85;;;;;;;;;;5086150;28;20375;-69
2021/11/15 04:17:47;;;;;;;4.03;3.72;;;;;;;;;;5070565;28;20693;-69
2021/11/15 04:20:15;;;;;;;4.18;3.88;;;;;;;;;;5077812;28;20404;-69
2021/11/15 04:22:43;;;;;;;4.22;3.92;;;;;;;;;;5069336;28;20751;-69
2021/11/15 04:25:10;;;;;;;4.28;3.95;;;;;;;;;;5081268;28;20865;-69
2021/11/15 04:27:38;;;;;;;5.00;4.60;;;;;;;;;;5073087;28;20980;-69
2021/11/15 04:30:07;;;;;;;4.40;3.92;;;;;;;;;;5083721;28;20392;-69
2021/11/15 04:32:34;;;;;;;4.57;4.17;;;;;;;;;;5098042;28;20488;-69
2021/11/15 04:35:03;;;;;;;4.30;3.90;;;;;;;;;;5082230;28;20423;-69
2021/11/15 04:37:30;;;;;;;4.50;4.10;;;;;;;;;;5086438;28;20384;-69
2021/11/15 04:39:57;;;;;;;4.72;4.32;;;;;;;;;;5083079;28;20422;-69
2021/11/15 04:42:25;;;;;;;4.60;4.20;;;;;;;;;;5068669;28;20385;-69
2021/11/15 04:44:52;;;;;;;4.57;4.18;;;;;;;;;;5080959;28;20405;-68
2021/11/15 04:47:20;;;;;;;4.65;4.25;;;;;;;;;;5068702;28;20394;-69
2021/11/15 04:49:47;;;;;;;4.70;4.30;;;;;;;;;;5084163;28;20407;-69
2021/11/15 04:52:15;;;;;;;4.47;4.15;;;;;;;;;;5084756;28;20381;-69
2021/11/15 04:54:43;;;;;;;4.60;4.20;;;;;;;;;;5075815;28;20400;-69
2021/11/15 04:57:10;;;;;;;4.63;4.25;;;;;;;;;;5086910;28;20389;-69
2021/11/15 04:59:37;;;;;;;4.57;4.25;;;;;;;;;;5084383;28;20404;-69
2021/11/15 05:02:04;;;;;;;4.22;3.83;;;;;;;;;;5051713;28;20396;-70
2021/11/15 05:04:32;;;;;;;4.38;4.05;;;;;;;;;;5082848;28;20424;-69
2021/11/15 05:06:59;;;;;;;4.75;4.35;;;;;;;;;;5071904;28;20384;-69
2021/11/15 05:09:26;;;;;;;4.60;4.20;;;;;;;;;;5084863;28;20396;-69
2021/11/15 05:11:54;;;;;;;5.07;4.60;;;;;;;;;;5085584;28;20881;-69
2021/11/15 05:14:21;;;;;;;4.80;4.40;;;;;;;;;;5080962;28;20383;-69
2021/11/15 05:16:48;;;;;;;4.72;4.32;;;;;;;;;;5075670;28;20403;-69
2021/11/15 05:19:15;;;;;;;5.03;4.53;;;;;;;;;;5066254;28;20400;-69
2021/11/15 05:21:43;;;;;;;4.80;4.40;;;;;;;;;;5084531;28;20722;-69
2021/11/15 05:24:10;;;;;;;4.70;4.30;;;;;;;;;;5079523;28;20414;-70
2021/11/15 05:26:37;;;;;;;5.50;5.00;;;;;;;;;;5086552;28;20400;-70
2021/11/15 05:29:05;;;;;;;5.05;4.55;;;;;;;;;;5067151;28;20404;-69
2021/11/15 05:31:34;;;;;;;5.25;4.80;;;;;;;;;;5071090;28;20893;-69
2021/11/15 05:34:03;;;;;;;5.35;4.85;;;;;;;;;;5086275;28;20391;-70
2021/11/15 05:36:30;;;;;;;5.47;4.93;;;;;;;;;;5077628;28;20866;-70
2021/11/15 05:38:58;;;;;;;5.67;5.00;;;;;;;;;;5080209;28;20405;-69
2021/11/15 05:41:25;;;;;;;5.47;4.97;;;;;;;;;;5074892;28;20404;-70
2021/11/15 05:43:53;;;;;;;5.47;4.97;;;;;;;;;;5081207;28;21186;-69
2021/11/15 05:46:20;;;;;;;5.38;4.93;;;;;;;;;;5081832;28;20445;-69
2021/11/15 05:48:51;;;;;;;5.80;5.30;;;;;;;;;;5062622;28;20789;-69
2021/11/15 05:51:22;;;;;;;5.70;5.18;;;;;;;;;;5059965;28;20388;-69
2021/11/15 05:53:52;;;;;;;6.00;5.40;;;;;;;;;;5078469;28;20414;-69
2021/11/15 05:56:23;;;;;;;5.35;4.95;;;;;;;;;;5077650;28;20418;-69
2021/11/15 05:58:50;;;;;;;6.05;5.50;;;;;;;;;;5074312;28;20394;-69
2021/11/15 06:01:22;;;;;;;6.30;5.70;;;;;;;;;;5078666;28;20403;-69
2021/11/15 06:03:50;;;;;;;5.93;5.43;;;;;;;;;;5078782;28;20401;-70
2021/11/15 06:06:21;;;;;;;5.75;5.25;;;;;;;;;;5080101;28;20863;-70
2021/11/15 06:08:50;;;;;;;6.93;6.05;;;;;;;;;;5073799;28;20415;-70
2021/11/15 06:11:23;;;;;;;7.68;6.00;;;;;;;;;;5086678;28;20411;-71
2021/11/15 06:13:51;;;;;;;9.65;6.50;;;;;;;;;;5070811;28;20393;-71
2021/11/15 06:16:20;;;;;;;7.57;5.97;;;;;;;;;;5083841;28;20465;-71
2021/11/15 06:18:50;;;;;;;7.05;6.13;;;;;;;;;;5083603;28;20433;-70
2021/11/15 06:21:22;;;;;;;7.05;6.35;;;;;;;;;;5087880;28;20400;-70
2021/11/15 06:23:52;;;;;;;6.88;6.20;;;;;;;;;;5082546;28;20407;-70
2021/11/15 06:26:22;;;;;;;7.35;6.55;;;;;;;;;;5082199;28;20402;-69
2021/11/15 06:28:53;;;;;;;7.03;6.32;;;;;;;;;;5082168;28;20392;-70
2021/11/15 06:31:25;;;;;;;7.07;6.47;;;;;;;;;;5080236;28;20404;-70
2021/11/15 06:33:55;;;;;;;7.47;6.72;;;;;;;;;;5068866;28;20414;-70
2021/11/15 06:36:23;;;;;;;7.93;7.13;;;;;;;;;;5081017;28;20442;-69
2021/11/15 06:38:58;;;;;;;7.93;7.15;;;;;;;;;;5078765;28;20392;-68
2021/11/15 06:41:28;;;;;;;24.35;9.60;;;;;;;;;;5071798;28;20869;-69
2021/11/15 06:44:00;;;;;;;136.30;32.13;;;;;;;;;;5075553;28;20409;-72
2021/11/15 06:46:29;;;;;;;129.75;29.42;;;;;;;;;;5091264;28;20415;-73
2021/11/15 06:48:58;;;;;;;113.68;29.35;;;;;;;;;;5079759;28;20414;-70
2021/11/15 06:51:43;;;;;;;111.20;27.60;;;;;;;;;;5092755;28;20515;-73
2021/11/15 06:54:14;;;;;;;83.32;24.85;;;;;;;;;;5064717;28;20920;-72
2021/11/15 06:56:44;;;;;;;78.10;24.58;;;;;;;;;;5087261;28;20410;-72
2021/11/15 06:59:14;;;;;;;74.28;23.33;;;;;;;;;;5089384;28;20398;-73
2021/11/15 07:01:45;;;;;;;74.32;22.73;;;;;;;;;;5080028;28;20438;-73
2021/11/15 07:04:16;;;;;;;59.55;21.80;;;;;;;;;;5087971;28;20410;-73
2021/11/15 07:06:46;;;;;;;57.05;21.45;;;;;;;;;;5087876;28;20408;-69
2021/11/15 07:09:17;;;;;;;54.17;20.23;;;;;;;;;;5084686;28;20424;-70
2021/11/15 07:11:51;;;;;;;54.03;20.08;;;;;;;;;;5097262;28;20707;-70
2021/11/15 07:14:21;;;;;;;52.38;18.55;;;;;;;;;;5087663;28;20389;-70
2021/11/15 07:16:51;;;;;;;44.65;17.88;;;;;;;;;;5086972;28;21213;-70
2021/11/15 07:19:20;;;;;;;41.30;17.35;;;;;;;;;;5081146;28;20454;-70
2021/11/15 07:21:48;;;;;;;36.43;16.83;;;;;;;;;;5095752;28;20455;-74
2021/11/15 07:24:18;;;;;;;36.33;15.75;;;;;;;;;;5087904;28;20400;-73
2021/11/15 07:26:50;;;;;;;36.92;16.73;;;;;;;;;;5090355;28;20388;-74
2021/11/15 07:29:21;;;;;;;31.17;15.75;;;;;;;;;;5085126;28;20966;-74
2021/11/15 07:31:49;;;;;;;29.90;14.57;;;;;;;;;;5081526;28;20407;-75
2021/11/15 07:34:26;;;;;;;28.80;14.55;;;;;;;;;;5070532;28;21065;-74
2021/11/15 07:36:58;;;;;;;25.15;14.07;;;;;;;;;;5081364;28;20489;-69
2021/11/15 07:39:31;;;;;;;32.85;15.82;;;;;;;;;;5062964;28;20408;-70
2021/11/15 07:42:03;;;;;;;51.90;18.55;;;;;;;;;;5094229;28;20423;-69
2021/11/15 07:44:31;;;;;;;51.80;20.13;;;;;;;;;;5077417;28;20400;-71
2021/11/15 07:47:01;;;;;;;51.25;20.05;;;;;;;;;;5064314;28;20758;-69
2021/11/15 07:49:30;;;;;;;57.10;20.17;;;;;;;;;;5081432;28;20397;-69
2021/11/15 07:52:01;;;;;;;53.33;19.42;;;;;;;;;;5085736;28;20737;-69
2021/11/15 07:54:34;;;;;;;44.38;18.45;;;;;;;;;;5057206;28;20441;-73
2021/11/15 07:57:06;;;;;;;46.45;17.73;;;;;;;;;;5068321;28;20398;-68
2021/11/15 07:59:39;;;;;;;44.03;17.90;;;;;;;;;;5079906;28;20453;-69
2021/11/15 08:02:11;;;;;;;42.43;17.90;;;;;;;;;;5088057;28;20396;-72
2021/11/15 08:04:54;;;;;;;40.50;17.40;;;;;;;;;;5080716;28;20410;-72
2021/11/15 08:07:23;;;;;;;35.67;16.60;;;;;;;;;;5074923;28;20420;-71
2021/11/15 08:09:52;;;;;;;35.95;15.15;;;;;;;;;;5065642;28;20411;-71
2021/11/15 08:12:22;;;;;;;33.78;15.70;;;;;;;;;;5088003;28;20372;-73
2021/11/15 08:14:51;;;;;;;34.38;15.30;;;;;;;;;;5061059;28;20427;-70
2021/11/15 08:17:23;;;;;;;29.35;15.55;;;;;;;;;;5078383;28;20838;-73
2021/11/15 08:19:50;;;;;;;26.38;14.32;;;;;;;;;;5080398;28;20407;-72
2021/11/15 08:22:22;;;;;;;25.60;14.32;;;;;;;;;;5066221;28;20936;-72
2021/11/15 08:25:02;;;;;;;23.90;13.38;;;;;;;;;;5078550;28;20399;-73
2021/11/15 08:27:34;;;;;;;24.60;13.27;;;;;;;;;;5080881;28;20396;-78
2021/11/15 08:30:06;;;;;;;22.80;13.23;;;;;;;;;;5094998;28;20402;-76
2021/11/15 08:32:35;;;;;;;22.35;12.60;;;;;;;;;;5078587;28;20855;-77
2021/11/15 08:35:06;;;;;;;20.77;12.70;;;;;;;;;;5079742;28;20399;-76
2021/11/15 08:37:58;;;;;;;21.05;12.65;;;;;;;;;;5099714;28;20392;-74
2021/11/15 08:40:28;;;;;;;22.70;12.27;;;;;;;;;;5022923;28;20396;-72
2021/11/15 08:42:57;;;;;;;19.10;11.60;;;;;;;;;;5063598;28;20944;-75
2021/11/15 08:45:29;;;;;;;19.30;11.65;;;;;;;;;;5068160;28;20394;-75
2021/11/15 08:47:59;;;;;;;17.23;11.38;;;;;;;;;;5070846;28;20395;-75
2021/11/15 08:50:27;;;;;;;15.43;10.40;;;;;;;;;;5082340;28;20903;-70
2021/11/15 08:53:04;;;;;;;12.32;9.43;;;;;;;;;;5060365;28;20400;-72
2021/11/15 08:55:36;;;;;;;13.73;9.30;;;;;;;;;;5080016;28;20392;-72
2021/11/15 08:58:06;;;;;;;13.15;8.60;;;;;;;;;;5064753;28;20754;-72
2021/11/15 09:00:34;;;;;;;11.25;8.07;;;;;;;;;;5067760;28;21044;-70
2021/11/15 09:03:07;;;;;;;9.00;7.45;;;;;;;;;;5092434;28;20409;-74
2021/11/15 09:05:36;;;;;;;10.75;7.53;;;;;;;;;;5062209;28;20796;-76
2021/11/15 09:08:07;;;;;;;10.35;6.90;;;;;;;;;;5064797;28;20400;-75
2021/11/15 09:10:40;;;;;;;10.45;6.95;;;;;;;;;;5072842;28;20428;-71
2021/11/15 09:13:09;;;;;;;8.38;6.40;;;;;;;;;;5083912;28;20405;-73
2021/11/15 09:15:46;;;;;;;10.55;6.20;;;;;;;;;;5068646;28;20398;-73
2021/11/15 09:18:17;;;;;;;;;;;;;;;;;;5067512;28;20411;-73
2021/11/15 09:20:44;;;;;;;;;;;;;;;;;;5057413;28;20420;-73
2021/11/15 09:23:13;;;;;;;9.57;6.00;;;;;;;;;;5064065;28;20335;-70
2021/11/15 09:25:42;;;;;;;7.63;6.28;;;;;;;;;;5064899;28;20394;-76
2021/11/15 09:28:17;;;;;;;11.82;6.25;;;;;;;;;;5037548;28;20385;-74
2021/11/15 09:30:55;;;;;;;7.57;5.88;;;;;;;;;;5061529;28;20483;-75
2021/11/15 09:33:40;;;;;;;6.40;5.80;;;;;;;;;;5062978;28;20406;-73
2021/11/15 09:36:10;;;;;;;7.95;6.38;;;;;;;;;;5065395;28;20398;-73
2021/11/15 09:38:42;;;;;;;8.60;6.22;;;;;;;;;;5072315;28;20862;-73
2021/11/15 09:41:12;;;;;;;9.10;6.78;;;;;;;;;;5073187;28;20497;-72
2021/11/15 09:43:42;;;;;;;7.75;6.45;;;;;;;;;;5048732;28;20406;-73
2021/11/15 09:46:17;;;;;;;7.80;6.90;;;;;;;;;;5060882;28;20417;-72
2021/11/15 09:49:11;;;;;;;7.53;6.63;;;;;;;;;;5040546;28;20396;-71
2021/11/15 09:51:40;;;;;;;7.60;6.65;;;;;;;;;;5049748;28;20471;-70
2021/11/15 09:54:11;;;;;;;9.25;7.00;;;;;;;;;;5063556;28;20390;-72
2021/11/15 09:56:39;;;;;;;8.75;6.85;;;;;;;;;;5054838;28;20387;-71
2021/11/15 09:59:11;;;;;;;8.60;7.05;;;;;;;;;;5064534;28;20394;-70
2021/11/15 10:01:41;;;;;;;7.87;7.03;;;;;;;;;;5057971;28;20481;-71
2021/11/15 10:04:14;;;;;;;7.57;6.57;;;;;;;;;;5057603;28;20398;-71
2021/11/15 10:06:45;;;;;;;11.27;6.70;;;;;;;;;;5043514;28;20407;-71
2021/11/15 10:09:12;;;;;;;7.80;6.72;;;;;;;;;;5045914;28;20398;-72
2021/11/15 10:11:49;;;;;;;8.68;6.90;;;;;;;;;;5061302;28;20398;-69
2021/11/15 10:14:23;;;;;;;7.78;7.00;;;;;;;;;;5076849;28;20391;-73
2021/11/15 10:17:18;;;;;;;9.98;7.00;;;;;;;;;;5051747;28;20423;-71
2021/11/15 10:19:48;;;;;;;8.10;6.80;;;;;;;;;;5063852;28;20394;-71
2021/11/15 10:22:20;;;;;;;7.83;7.03;;;;;;;;;;5056270;28;20413;-69
2021/11/15 10:24:49;;;;;;;9.65;7.53;;;;;;;;;;5067816;28;20394;-72
2021/11/15 10:27:26;;;;;;;8.75;7.18;;;;;;;;;;5067311;28;20401;-71
2021/11/15 10:30:10;;;;;;;7.95;7.15;;;;;;;;;;5079107;28;20509;-72
2021/11/15 10:32:53;;;;;;;8.68;7.68;;;;;;;;;;5038522;28;21187;-72
2021/11/15 10:35:40;;;;;;;8.70;7.80;;;;;;;;;;5051838;28;20891;-74
2021/11/15 10:38:08;;;;;;;9.35;8.18;;;;;;;;;;5041817;28;20860;-76
2021/11/15 10:40:37;;;;;;;9.32;8.30;;;;;;;;;;5059602;28;20398;-74
2021/11/15 10:43:10;;;;;;;9.95;8.70;;;;;;;;;;5044943;28;20403;-73
2021/11/15 10:45:39;;;;;;;9.68;8.68;;;;;;;;;;5042892;28;20433;-74
2021/11/15 10:48:17;;;;;;;11.00;8.55;;;;;;;;;;5044510;28;20770;-71
2021/11/15 10:53:36;;;;;;;10.90;9.80;;;;;;;;;;5064383;28;20390;-79
2021/11/15 10:56:14;;;;;;;9.63;8.60;;;;;;;;;;5065579;28;20414;-76
2021/11/15 10:58:45;;;;;;;11.05;9.00;;;;;;;;;;5057739;28;20517;-69
2021/11/15 11:01:17;;;;;;;11.68;9.38;;;;;;;;;;5066219;28;20391;-72
2021/11/15 11:04:06;;;;;;;12.65;10.00;;;;;;;;;;5043642;28;20408;-70
2021/11/15 11:07:01;;;;;;;12.07;9.75;;;;;;;;;;5054792;28;20394;-71
2021/11/15 11:09:34;;;;;;;13.53;10.30;;;;;;;;;;5058427;28;20398;-70
2021/11/15 11:12:20;;;;;;;11.48;9.85;;;;;;;;;;5031406;28;20467;-71
2021/11/15 11:14:50;;;;;;;10.85;9.73;;;;;;;;;;5054145;28;20421;-71
2021/11/15 11:17:18;;;;;;;10.63;9.53;;;;;;;;;;5070130;28;20457;-71
2021/11/15 11:21:01;;;;;;;11.90;10.18;;;;;;;;;;5046076;28;20934;-70
2021/11/15 11:23:28;;;;;;;12.20;9.83;;;;;;;;;;5054587;28;21247;-70
2021/11/15 11:25:55;;;;;;;12.32;9.70;;;;;;;;;;5065556;28;20402;-69
2021/11/15 11:28:30;;;;;;;12.52;9.95;;;;;;;;;;5062669;28;20504;-71
2021/11/15 11:30:58;;;;;;;13.32;10.85;;;;;;;;;;5051405;28;20416;-71
2021/11/15 11:33:28;;;;;;;11.25;9.32;;;;;;;;;;5057920;28;20406;-73
2021/11/15 11:35:55;;;;;;;10.63;9.07;;;;;;;;;;5060424;28;20409;-75
2021/11/15 11:38:23;;;;;;;10.32;8.50;;;;;;;;;;5040937;28;20427;-72
2021/11/15 11:40:53;;;;;;;11.40;9.40;;;;;;;;;;5062117;28;20768;-71
2021/11/15 11:43:21;;;;;;;11.45;8.65;;;;;;;;;;5061330;28;20406;-72
2021/11/15 11:45:49;;;;;;;11.63;8.20;;;;;;;;;;5055343;28;20394;-75
2021/11/15 11:48:17;;;;;;;9.95;8.55;;;;;;;;;;5061578;28;20382;-71
2021/11/15 11:50:49;;;;;;;11.68;8.70;;;;;;;;;;5055995;28;20400;-71
2021/11/15 11:53:31;;;;;;;12.15;8.57;;;;;;;;;;5060636;28;20728;-71
2021/11/15 11:55:59;;;;;;;9.68;8.68;;;;;;;;;;5060875;28;20405;-71
2021/11/15 11:58:33;;;;;;;9.32;8.43;;;;;;;;;;5075646;28;21403;-76
2021/11/15 12:01:02;;;;;;;10.93;8.10;;;;;;;;;;5039929;28;20396;-73
2021/11/15 12:03:30;;;;;;;11.27;8.38;;;;;;;;;;5061744;28;20382;-73
2021/11/15 12:05:58;;;;;;;11.30;8.80;;;;;;;;;;5041356;28;20403;-75
2021/11/15 12:08:44;;;;;;;10.00;8.23;;;;;;;;;;5064964;28;20902;-76
2021/11/15 12:11:22;;;;;;;8.70;7.80;;;;;;;;;;5063077;28;20801;-75
2021/11/15 12:13:49;;;;;;;10.00;8.13;;;;;;;;;;5067656;28;20899;-75
2021/11/15 12:16:17;;;;;;;8.40;7.50;;;;;;;;;;5042966;28;20396;-76
2021/11/15 12:19:00;;;;;;;8.50;7.63;;;;;;;;;;5050110;28;20407;-74
2021/11/15 12:21:37;;;;;;;15.85;8.57;;;;;;;;;;5078123;28;20489;-76
2021/11/15 12:24:06;;;;;;;44.63;12.75;;;;;;;;;;5036725;28;20408;-76
2021/11/15 12:26:39;;;;;;;67.07;16.67;;;;;;;;;;5046412;28;20402;-73
2021/11/15 12:29:37;;;;;;;86.40;20.20;;;;;;;;;;5060187;28;21033;-75
2021/11/15 12:32:08;;;;;;;96.97;21.20;;;;;;;;;;5053250;28;20429;-78
2021/11/15 12:34:56;;;;;;;94.18;21.50;;;;;;;;;;5074853;28;20482;-72
2021/11/15 12:37:33;;;;;;;97.65;22.40;;;;;;;;;;5062272;28;20450;-75
2021/11/15 12:40:00;;;;;;;96.65;22.15;;;;;;;;;;5045769;28;20394;-74
2021/11/15 12:42:29;;;;;;;86.47;21.27;;;;;;;;;;5066482;28;20982;-76
2021/11/15 12:45:14;;;;;;;88.13;23.65;;;;;;;;;;5069256;28;20419;-69
2021/11/15 12:47:41;;;;;;;;;;;;;;;;;;5080617;28;20405;-69
2021/11/15 12:50:08;;;;;;;;;;;;;;;;;;5063928;28;19933;-70
2021/11/15 12:52:35;;;;;;;;;;;;;;;;;;5067195;28;19977;-69
2021/11/15 12:55:03;;;;;;;;;;;;;;;;;;5044240;28;20349;-68
2021/11/15 12:57:32;;;;;;;61.13;17.40;;;;;;;;;;5060295;28;20423;-74
2021/11/15 13:00:02;;;;;;;52.35;17.20;;;;;;;;;;5054710;28;20438;-71
2021/11/15 13:02:29;;;;;;;55.30;17.63;;;;;;;;;;5064158;28;20456;-70
2021/11/15 13:04:57;;;;;;;;;;;;;;;;;;5059652;28;20409;-71
2021/11/15 13:07:24;;;;;;;;;;;;;;;;;;5066077;28;20407;-70
2021/11/15 13:09:51;;;;;;;;;;;;;;;;;;5065163;28;20256;-71
2021/11/15 13:12:19;;;;;;;;;;;;;;;;;;5065990;28;19947;-71
2021/11/15 13:14:46;;;;;;;;;;;;;;;;;;5058008;28;19942;-73
2021/11/15 13:17:18;;;;;;;;;;;;;;;;;;5052005;28;20353;-73
2021/11/15 13:19:47;;;;;;;30.88;12.63;;;;;;;;;;5064298;28;20381;-76
2021/11/15 13:22:22;;;;;;;30.85;11.73;;;;;;;;;;5063751;28;20968;-73
2021/11/15 13:24:55;;;;;;;;;;;;;;;;;;5047114;28;20439;-71
2021/11/15 13:27:29;;;;;;;;;;;;;;;;;;5069568;28;19942;-71
2021/11/15 13:30:00;;;;;;;;;;;;;;;;;;5066193;28;19959;-73
2021/11/15 13:32:32;;;;;;;;;;;;;;;;;;5068585;28;19950;-73
2021/11/15 13:35:00;;;;;;;;;;;;;;;;;;5056974;28;19951;-73
2021/11/15 13:37:32;;;;;;;;;;;;;;;;;;5062680;28;19928;-71
2021/11/15 13:40:02;;;;;;;;;;;;;;;;;;5066973;28;19920;-71
2021/11/15 13:42:31;;;;;;;;;;;;;;;;;;5072654;28;19955;-72
2021/11/15 13:45:02;;;;;;;;;;;;;;;;;;5065293;28;19939;-72
2021/11/15 13:47:39;;;;;;;;;;;;;;;;;;5077857;28;19927;-72
2021/11/15 13:50:12;;;;;;;;;;;;;;;;;;5066599;28;19950;-72
2021/11/15 13:52:44;;;;;;;;;;;;;;;;;;5070492;28;19962;-75
2021/11/15 13:55:17;;;;;;;;;;;;;;;;;;5066727;28;19955;-73
2021/11/15 13:57:48;;;;;;;;;;;;;;;;;;5067910;28;19928;-70
2021/11/15 14:00:17;;;;;;;;;;;;;;;;;;5062034;28;20361;-72
2021/11/15 14:02:50;;;;;;;;;;;;;;;;;;5066913;28;19931;-72
2021/11/15 14:05:20;;;;;;;;;;;;;;;;;;5068167;28;19985;-72
2021/11/15 14:07:49;;;;;;;;;;;;;;;;;;5072218;28;19932;-73
2021/11/15 14:10:20;;;;;;;;;;;;;;;;;;5063147;28;19924;-78
2021/11/15 14:12:51;;;;;;;;;;;;;;;;;;5042949;28;20014;-75
2021/11/15 14:15:23;;;;;;;;;;;;;;;;;;5046728;28;19927;-71
2021/11/15 14:17:52;;;;;;;;;;;;;;;;;;5067146;28;19935;-70
2021/11/15 14:20:27;;;;;;;;;;;;;;;;;;5062944;28;20343;-71
2021/11/15 14:22:58;;;;;;;;;;;;;;;;;;5060413;28;19958;-73
2021/11/15 14:25:29;;;;;;;;;;;;;;;;;;5071262;28;19955;-72
2021/11/15 14:28:06;;;;;;;;;;;;;;;;;;5057879;28;19939;-76
2021/11/15 14:30:34;;;;;;;;;;;;;;;;;;5067467;28;19920;-73
2021/11/15 14:33:01;;;;;;;;;;;;;;;;;;5057547;28;19944;-75
2021/11/15 14:35:30;;;;;;;;;;;;;;;;;;5064267;28;19955;-74
2021/11/15 14:38:01;;;;;;;15.05;6.13;;;;;;;;;;5066880;28;21113;-74
2021/11/15 14:40:44;;;;;;;;;;;;;;;;;;5068475;28;20473;-75
2021/11/15 14:43:11;;;;;;;;;;;;;;;;;;5065610;28;19939;-72
2021/11/15 14:45:42;;;;;;;;;;;;;;;;;;5077878;28;20343;-72
2021/11/15 14:48:12;;;;;;;;;;;;;;;;;;5066862;28;20318;-72
2021/11/15 14:50:56;;;;;;;;;;;;;;;;;;5057611;28;21069;-74
2021/11/15 14:53:26;;;;;;;;;;;;;;;;;;5066456;28;19924;-73
2021/11/15 14:55:57;;;;;;;;;;;;;;;;;;5063375;28;19964;-71
2021/11/15 14:58:28;;;;;;;;;;;;;;;;;;5060927;28;19966;-72
2021/11/15 15:00:59;;;;;;;;;;;;;;;;;;5063063;28;19946;-72
2021/11/15 15:03:30;;;;;;;;;;;;;;;;;;5067484;28;19959;-73
2021/11/15 15:06:00;;;;;;;;;;;;;;;;;;5069882;28;20033;-75
2021/11/15 15:08:31;;;;;;;;;;;;;;;;;;5065659;28;19958;-74
2021/11/15 15:11:00;;;;;;;;;;;;;;;;;;5045828;28;19924;-74
2021/11/15 15:13:32;;;;;;;;;;;;;;;;;;5065255;28;19962;-74
2021/11/15 15:16:03;;;;;;;;;;;;;;;;;;5068000;28;19982;-80
2021/11/15 15:18:36;;;;;;;;;;;;;;;;;;5067143;28;19928;-76
2021/11/15 15:21:11;;;;;;;;;;;;;;;;;;5069949;28;20313;-76